Time;durP1;ratioP1;P1;durP2;ratioP2;P2;SDS_P1;SDS_P2;PMS_P1;PMS_P2;Temp;Humidity;BMP_temperature;BMP_pressure;BME280_temperature;BME280_humidity;BME280_pressure;Samples;Min_cycle;Max_cycle;Signal;HPM_P1;HPM_P2
2022/01/06 00:00:43;;;;;;;9.83;3.23;;;;;;;0.47;100.00;95536.69;5050824;28;24425;-71
2022/01/06 00:03:09;;;;;;;9.87;3.47;;;;;;;0.52;100.00;95535.72;5050652;28;24415;-71
2022/01/06 00:05:36;;;;;;;8.15;3.05;;;;;;;0.51;100.00;95532.34;5050510;28;24458;-71
2022/01/06 00:08:02;;;;;;;8.13;3.10;;;;;;;0.40;100.00;95537.72;5050591;28;24778;-71
2022/01/06 00:10:30;;;;;;;10.05;3.33;;;;;;;0.42;100.00;95535.97;5056270;28;25011;-71
2022/01/06 00:16:00;;;;;;;7.65;2.90;;;;;;;0.41;100.00;95541.13;5044672;28;24485;-71
2022/01/06 00:18:39;;;;;;;8.70;3.40;;;;;;;0.51;100.00;95544.25;5050616;28;24510;-71
2022/01/06 00:23:50;;;;;;;8.55;3.10;;;;;;;0.42;100.00;95547.88;5050526;28;24778;-71
2022/01/06 00:26:16;;;;;;;8.70;3.57;;;;;;;0.46;100.00;95555.41;5049985;28;24412;-71
2022/01/06 00:28:44;;;;;;;14.30;3.90;;;;;;;0.42;100.00;95538.53;5050436;28;24485;-70
2022/01/06 00:31:10;;;;;;;8.50;3.00;;;;;;;0.42;100.00;95541.06;5050440;28;24446;-71
2022/01/06 00:33:37;;;;;;;15.00;3.80;;;;;;;0.41;100.00;95538.59;5051453;28;24493;-71
2022/01/06 00:36:04;;;;;;;12.18;3.42;;;;;;;0.44;100.00;95544.41;5056544;28;24778;-70
2022/01/06 00:38:30;;;;;;;14.45;4.03;;;;;;;0.38;100.00;95536.94;5056560;28;24423;-71
2022/01/06 00:40:58;;;;;;;9.25;3.42;;;;;;;0.36;100.00;95538.69;5056926;28;24427;-71
2022/01/06 00:43:24;;;;;;;12.67;3.67;;;;;;;0.39;100.00;95546.25;5055644;28;24535;-71
2022/01/06 00:45:52;;;;;;;7.10;3.28;;;;;;;0.43;100.00;95547.00;5056522;28;24439;-71
2022/01/06 00:48:19;;;;;;;12.07;3.28;;;;;;;0.46;100.00;95542.66;5056700;28;24773;-70
2022/01/06 00:50:45;;;;;;;8.45;3.58;;;;;;;0.45;100.00;95545.25;5056644;28;24423;-71
2022/01/06 00:53:12;;;;;;;8.23;2.88;;;;;;;0.47;100.00;95544.31;5056531;28;24567;-71
2022/01/06 00:55:40;;;;;;;8.43;3.30;;;;;;;0.50;100.00;95540.88;5056652;28;24454;-71
2022/01/06 00:58:07;;;;;;;7.40;3.38;;;;;;;0.53;100.00;95545.88;5056396;28;24480;-71
2022/01/06 01:00:40;;;;;;;12.73;3.28;;;;;;;0.45;100.00;95543.53;5056649;28;24975;-72
2022/01/06 01:03:12;;;;;;;14.10;3.30;;;;;;;0.48;100.00;95548.56;5056379;28;24431;-71
2022/01/06 01:05:39;;;;;;;7.63;3.10;;;;;;;0.46;100.00;95541.84;5056057;28;24442;-71
2022/01/06 01:08:05;;;;;;;9.30;3.08;;;;;;;0.47;100.00;95551.13;5056761;28;24422;-70
2022/01/06 01:10:32;;;;;;;10.63;3.40;;;;;;;0.46;100.00;95550.31;5056594;28;24435;-71
2022/01/06 01:12:58;;;;;;;10.30;3.03;;;;;;;0.45;100.00;95555.47;5056432;28;24980;-71
2022/01/06 01:15:26;;;;;;;8.65;3.60;;;;;;;0.47;100.00;95556.22;5056478;28;24422;-72
2022/01/06 01:17:54;;;;;;;12.10;3.83;;;;;;;0.50;100.00;95562.97;5056478;28;24445;-71
2022/01/06 01:20:22;;;;;;;8.57;3.22;;;;;;;0.54;100.00;95555.19;5056350;28;24480;-71
2022/01/06 01:22:49;;;;;;;11.50;3.40;;;;;;;0.59;100.00;95562.72;5056406;28;24975;-71
2022/01/06 01:25:15;;;;;;;9.30;3.20;;;;;;;0.60;100.00;95565.22;5056548;28;24418;-71
2022/01/06 01:27:44;;;;;;;9.98;2.75;;;;;;;0.57;100.00;95564.47;5056217;28;24964;-70
2022/01/06 01:30:14;;;;;;;7.43;3.03;;;;;;;0.66;100.00;95566.75;5056506;28;24426;-71
2022/01/06 01:32:46;;;;;;;6.43;2.75;;;;;;;0.72;100.00;95570.00;5056424;28;24427;-71
2022/01/06 01:35:13;;;;;;;9.05;2.95;;;;;;;0.73;100.00;95569.09;5056390;28;24530;-71
2022/01/06 01:37:41;;;;;;;7.10;2.70;;;;;;;0.81;100.00;95575.69;5056182;28;24423;-71
2022/01/06 01:40:13;;;;;;;7.00;2.65;;;;;;;0.82;100.00;95577.41;5056299;28;24763;-71
2022/01/06 01:42:41;;;;;;;5.05;2.70;;;;;;;0.87;100.00;95573.00;5056388;28;24427;-71
2022/01/06 01:45:09;;;;;;;5.13;2.63;;;;;;;0.94;100.00;95579.59;5055157;28;24500;-71
2022/01/06 01:47:40;;;;;;;6.70;2.55;;;;;;;1.01;100.00;95578.53;5051969;28;24453;-71
2022/01/06 01:50:15;;;;;;;5.97;2.70;;;;;;;0.93;100.00;95581.31;5045243;28;25023;-70
2022/01/06 01:52:45;;;;;;;4.57;2.15;;;;;;;0.81;100.00;95585.91;5053014;28;24437;-71
2022/01/06 01:55:13;;;;;;;5.40;2.38;;;;;;;0.82;100.00;95588.41;5052937;28;24844;-70
2022/01/06 01:57:40;;;;;;;5.30;2.40;;;;;;;0.85;100.00;95584.94;5052672;28;24420;-70
2022/01/06 02:00:09;;;;;;;6.40;2.83;;;;;;;0.81;100.00;95593.53;5052952;28;25058;-70
2022/01/06 02:02:35;;;;;;;4.72;2.15;;;;;;;0.76;100.00;95598.78;5052919;28;24465;-70
2022/01/06 02:05:02;;;;;;;5.85;2.17;;;;;;;0.79;100.00;95592.78;5052863;28;24418;-70
2022/01/06 02:07:29;;;;;;;6.82;2.58;;;;;;;0.84;100.00;95588.38;5052487;28;24422;-71
2022/01/06 02:09:56;;;;;;;3.78;1.70;;;;;;;0.86;100.00;95590.00;5052622;28;24777;-70
2022/01/06 02:12:28;;;;;;;5.72;1.95;;;;;;;0.89;100.00;95592.47;5052999;28;24493;-70
2022/01/06 02:14:54;;;;;;;6.45;2.63;;;;;;;0.84;100.00;95593.47;5052704;28;24486;-70
2022/01/06 02:17:21;;;;;;;3.83;2.05;;;;;;;0.84;100.00;95591.75;5052596;28;24427;-71
2022/01/06 02:19:54;;;;;;;4.38;2.00;;;;;;;0.78;100.00;95599.59;5052455;28;24435;-72
2022/01/06 02:22:20;;;;;;;4.83;2.00;;;;;;;0.74;100.00;95592.88;5052482;28;24449;-71
2022/01/06 02:24:47;;;;;;;6.10;2.53;;;;;;;0.80;100.00;95607.19;5052482;28;24496;-70
2022/01/06 02:27:14;;;;;;;4.53;2.17;;;;;;;0.87;100.00;95595.94;5052464;28;24473;-70
2022/01/06 02:29:40;;;;;;;4.63;2.00;;;;;;;0.85;100.00;95603.59;5052502;28;24434;-70
2022/01/06 02:32:08;;;;;;;4.47;1.88;;;;;;;0.90;100.00;95608.59;5052530;28;24961;-71
2022/01/06 02:34:35;;;;;;;3.97;2.15;;;;;;;0.87;100.00;95608.69;5052450;28;24973;-70
2022/01/06 02:37:03;;;;;;;4.97;1.90;;;;;;;0.83;100.00;95609.66;5052013;28;24419;-71
2022/01/06 02:39:30;;;;;;;4.45;2.28;;;;;;;0.82;100.00;95615.63;5051826;28;24469;-71
2022/01/06 02:41:56;;;;;;;5.30;2.25;;;;;;;0.85;100.00;95621.47;5052020;28;24983;-70
2022/01/06 02:44:25;;;;;;;3.75;1.75;;;;;;;0.82;100.00;95619.00;5052111;28;24411;-71
2022/01/06 02:46:51;;;;;;;3.85;2.13;;;;;;;0.69;100.00;95621.03;5051717;28;24469;-71
2022/01/06 02:49:18;;;;;;;8.52;2.00;;;;;;;0.70;100.00;95619.31;5051980;28;24465;-71
2022/01/06 02:51:45;;;;;;;3.45;1.75;;;;;;;0.71;100.00;95624.41;5052027;28;24411;-70
2022/01/06 02:54:13;;;;;;;5.22;1.85;;;;;;;0.68;100.00;95621.09;5051843;28;24923;-70
2022/01/06 02:56:41;;;;;;;3.05;1.50;;;;;;;0.63;100.00;95628.88;5051662;28;24786;-71
2022/01/06 02:59:08;;;;;;;4.05;1.65;;;;;;;0.69;100.00;95623.59;5051623;28;24432;-71
2022/01/06 03:01:39;;;;;;;3.92;1.65;;;;;;;0.78;100.00;95624.22;5052071;28;24423;-71
2022/01/06 03:04:05;;;;;;;4.32;1.48;;;;;;;0.73;100.00;95630.28;5051821;28;24451;-71
2022/01/06 03:06:32;;;;;;;4.38;1.80;;;;;;;0.77;100.00;95630.19;5051401;28;24419;-72
2022/01/06 03:08:58;;;;;;;4.00;1.85;;;;;;;0.77;100.00;95630.19;5051855;28;24423;-71
2022/01/06 03:11:27;;;;;;;3.83;1.60;;;;;;;0.73;100.00;95639.63;5051633;28;24419;-70
2022/01/06 03:13:54;;;;;;;3.57;1.60;;;;;;;0.68;100.00;95642.31;5051546;28;24423;-72
2022/01/06 03:16:20;;;;;;;3.53;1.70;;;;;;;0.64;100.00;95639.91;5051320;28;24968;-71
2022/01/06 03:18:47;;;;;;;3.38;1.48;;;;;;;0.64;100.00;95642.44;5051406;28;24520;-71
2022/01/06 03:21:13;;;;;;;1.97;1.20;;;;;;;0.62;100.00;95646.72;5051341;28;24415;-70
2022/01/06 03:23:40;;;;;;;2.30;1.10;;;;;;;0.60;100.00;95651.06;5051594;28;24464;-71
2022/01/06 03:26:07;;;;;;;2.50;1.25;;;;;;;0.58;100.00;95655.34;5051164;28;24419;-71
2022/01/06 03:28:35;;;;;;;3.33;1.27;;;;;;;0.58;100.00;95655.34;5051251;28;24422;-71
2022/01/06 03:31:02;;;;;;;4.47;1.67;;;;;;;0.55;100.00;95661.34;5051279;28;24407;-70
2022/01/06 03:33:28;;;;;;;2.15;1.42;;;;;;;0.55;100.00;95663.88;5051046;28;24975;-71
2022/01/06 03:35:55;;;;;;;3.03;1.45;;;;;;;0.53;100.00;95673.31;5050769;28;24443;-71
2022/01/06 03:38:21;;;;;;;2.70;1.48;;;;;;;0.59;100.00;95669.75;5051243;28;24419;-71
2022/01/06 03:40:48;;;;;;;3.85;1.50;;;;;;;0.57;100.00;95667.25;5051199;28;24423;-71
2022/01/06 03:43:14;;;;;;;2.25;1.40;;;;;;;0.47;100.00;95679.38;5051000;28;24419;-70
2022/01/06 03:45:42;;;;;;;2.13;1.33;;;;;;;0.56;100.00;95674.94;5050676;28;24419;-71
2022/01/06 03:48:08;;;;;;;2.83;1.42;;;;;;;0.58;100.00;95684.19;5050762;28;24473;-70
2022/01/06 03:50:35;;;;;;;3.00;1.48;;;;;;;0.54;100.00;95677.50;5051171;28;24450;-70
2022/01/06 03:53:01;;;;;;;3.10;1.35;;;;;;;0.45;100.00;95683.69;5051007;28;24423;-70
2022/01/06 03:55:28;;;;;;;2.55;1.20;;;;;;;0.34;100.00;95683.09;5050739;28;24431;-71
2022/01/06 03:57:54;;;;;;;2.50;1.35;;;;;;;0.23;100.00;95685.91;5050476;28;24431;-71
2022/01/06 04:00:22;;;;;;;3.78;1.50;;;;;;;0.15;100.00;95692.91;5050772;28;24848;-72
2022/01/06 04:02:51;;;;;;;4.20;1.80;;;;;;;0.18;100.00;95697.06;5050392;28;25067;-70
2022/01/06 04:05:18;;;;;;;4.28;1.60;;;;;;;0.27;100.00;95696.88;5050732;28;24527;-70
2022/01/06 04:07:44;;;;;;;2.63;1.30;;;;;;;0.23;100.00;95692.72;5050780;28;24454;-71
2022/01/06 04:10:12;;;;;;;8.27;1.73;;;;;;;0.24;100.00;95696.94;5061814;28;24437;-70
2022/01/06 04:12:39;;;;;;;4.25;1.65;;;;;;;0.24;100.00;95682.47;5050465;28;24511;-70
2022/01/06 04:15:10;;;;;;;1.70;1.23;;;;;;;0.33;100.00;95691.59;5050261;28;24451;-70
2022/01/06 04:17:36;;;;;;;3.60;1.55;;;;;;;0.32;100.00;95689.09;5050377;28;24415;-71
2022/01/06 04:20:07;;;;;;;3.60;1.60;;;;;;;0.31;100.00;95685.72;5050608;28;24494;-70
2022/01/06 04:22:33;;;;;;;2.00;1.30;;;;;;;0.36;100.00;95681.34;5050666;28;24430;-70
2022/01/06 04:25:00;;;;;;;2.10;1.33;;;;;;;0.41;100.00;95694.81;5050251;28;24531;-70
2022/01/06 04:27:27;;;;;;;3.35;1.60;;;;;;;0.53;100.00;95692.84;5050148;28;24422;-70
2022/01/06 04:29:53;;;;;;;3.75;1.75;;;;;;;0.52;100.00;95688.59;5049926;28;24443;-71
2022/01/06 04:32:20;;;;;;;3.60;1.75;;;;;;;0.53;100.00;95701.31;5050347;28;24431;-70
2022/01/06 04:34:46;;;;;;;3.38;1.80;;;;;;;0.62;100.00;95703.63;5050124;28;24451;-71
2022/01/06 04:37:14;;;;;;;3.20;1.48;;;;;;;0.56;100.00;95701.25;5050385;28;24839;-70
2022/01/06 04:39:41;;;;;;;3.20;1.73;;;;;;;0.55;100.00;95697.00;5050324;28;24423;-70
2022/01/06 04:42:07;;;;;;;3.87;1.40;;;;;;;0.56;100.00;95693.63;5031614;28;24531;-71
2022/01/06 04:44:34;;;;;;;2.22;1.42;;;;;;;0.63;100.00;95709.56;5030206;28;24469;-69
2022/01/06 04:47:01;;;;;;;2.35;1.50;;;;;;;0.55;100.00;95711.47;5030089;28;24447;-71
2022/01/06 04:49:27;;;;;;;2.20;1.25;;;;;;;0.65;100.00;95713.75;5030393;28;24510;-70
2022/01/06 04:51:54;;;;;;;3.88;1.73;;;;;;;0.67;100.00;95716.28;5030431;28;24423;-70
2022/01/06 04:54:21;;;;;;;4.28;1.40;;;;;;;0.74;100.00;95712.69;5030130;28;24415;-70
2022/01/06 04:56:48;;;;;;;3.15;1.65;;;;;;;0.75;100.00;95716.94;5029842;28;25175;-70
2022/01/06 04:59:14;;;;;;;3.17;1.42;;;;;;;0.62;100.00;95728.28;5033496;28;24458;-72
2022/01/06 05:01:41;;;;;;;2.28;1.20;;;;;;;0.58;100.00;95726.69;5058644;28;24430;-71
2022/01/06 05:04:07;;;;;;;3.17;1.23;;;;;;;0.55;100.00;95730.13;5070219;28;24468;-71
2022/01/06 05:06:34;;;;;;;3.80;1.40;;;;;;;0.51;100.00;95743.00;5069556;28;24415;-70
2022/01/06 05:09:01;;;;;;;4.22;1.50;;;;;;;0.54;100.00;95733.56;5069886;28;24419;-71
2022/01/06 05:11:29;;;;;;;4.70;1.33;;;;;;;0.64;100.00;95739.28;5069778;28;24418;-70
2022/01/06 05:13:55;;;;;;;2.85;1.33;;;;;;;0.54;100.00;95732.75;5070225;28;24492;-70
2022/01/06 05:16:22;;;;;;;4.72;1.50;;;;;;;0.58;100.00;95737.72;5069532;28;24438;-71
2022/01/06 05:18:49;;;;;;;4.07;1.80;;;;;;;0.64;100.00;95741.84;5069883;28;25014;-70
2022/01/06 05:21:15;;;;;;;2.47;1.40;;;;;;;0.48;100.00;95737.13;5071131;28;24422;-71
2022/01/06 05:23:42;;;;;;;3.95;1.75;;;;;;;0.36;100.00;95737.38;5073611;28;24827;-70
2022/01/06 05:26:09;;;;;;;4.25;1.73;;;;;;;0.48;100.00;95736.25;5073648;28;24414;-70
2022/01/06 05:28:37;;;;;;;4.80;1.70;;;;;;;0.52;100.00;95735.34;5073492;28;24512;-71
2022/01/06 05:31:03;;;;;;;3.40;1.50;;;;;;;0.52;100.00;95737.88;5073542;28;24492;-70
2022/01/06 05:33:30;;;;;;;3.33;1.65;;;;;;;0.62;100.00;95733.38;5073441;28;24419;-70
2022/01/06 05:35:56;;;;;;;3.50;1.60;;;;;;;0.60;100.00;95740.25;5073100;28;24438;-71
2022/01/06 05:38:23;;;;;;;3.75;1.67;;;;;;;0.53;100.00;95746.38;5061454;28;24489;-71
2022/01/06 05:40:49;;;;;;;3.28;1.50;;;;;;;0.55;100.00;95749.69;5053102;28;25167;-71
2022/01/06 05:43:18;;;;;;;5.50;1.88;;;;;;;0.43;100.00;95748.28;5053395;28;24972;-72
2022/01/06 05:45:46;;;;;;;3.83;1.98;;;;;;;0.38;100.00;95756.03;5052880;28;24478;-71
2022/01/06 05:48:13;;;;;;;3.37;1.60;;;;;;;0.35;100.00;95768.84;5053251;28;24422;-71
2022/01/06 05:50:39;;;;;;;3.67;1.80;;;;;;;0.34;100.00;95764.63;5053106;28;24481;-71
2022/01/06 05:53:07;;;;;;;6.70;1.88;;;;;;;0.28;100.00;95774.94;5053027;28;24916;-71
2022/01/06 05:55:33;;;;;;;6.13;2.28;;;;;;;0.21;100.00;95778.50;5053074;28;24789;-71
2022/01/06 05:58:00;;;;;;;4.22;1.65;;;;;;;0.21;100.00;95778.50;5052873;28;24431;-70
2022/01/06 06:00:26;;;;;;;4.80;1.90;;;;;;;0.25;100.00;95775.00;5052788;28;24960;-71
2022/01/06 06:02:54;;;;;;;5.60;1.70;;;;;;;0.31;100.00;95774.06;5052879;28;24430;-71
2022/01/06 06:05:20;;;;;;;4.47;1.57;;;;;;;0.31;100.00;95787.63;5052714;28;24427;-71
2022/01/06 06:07:47;;;;;;;5.03;1.70;;;;;;;0.42;100.00;95784.84;5052455;28;24480;-71
2022/01/06 06:10:13;;;;;;;3.47;1.88;;;;;;;0.45;100.00;95784.78;5052934;28;24770;-71
2022/01/06 06:12:40;;;;;;;3.42;1.90;;;;;;;0.56;100.00;95794.72;5057109;28;24422;-71
2022/01/06 06:15:07;;;;;;;6.05;2.15;;;;;;;0.43;100.00;95794.97;5052480;28;24454;-71
2022/01/06 06:17:34;;;;;;;3.17;1.63;;;;;;;0.49;100.00;95801.66;5052102;28;24793;-71
2022/01/06 06:20:01;;;;;;;4.20;2.40;;;;;;;0.35;100.00;95796.88;5052625;28;24430;-71
2022/01/06 06:22:28;;;;;;;4.78;1.83;;;;;;;0.37;100.00;95799.38;5052221;28;24446;-71
2022/01/06 06:24:54;;;;;;;5.03;2.33;;;;;;;0.33;100.00;95806.25;5052649;28;24411;-71
2022/01/06 06:27:21;;;;;;;4.30;2.10;;;;;;;0.39;100.00;95806.13;5052245;28;24415;-71
2022/01/06 06:29:47;;;;;;;3.70;1.83;;;;;;;0.46;100.00;95817.00;5052345;28;24416;-72
2022/01/06 06:32:14;;;;;;;7.50;2.13;;;;;;;0.45;100.00;95812.78;5051877;28;24986;-71
2022/01/06 06:34:40;;;;;;;6.93;2.63;;;;;;;0.35;100.00;95816.41;5052158;28;24423;-71
2022/01/06 06:37:08;;;;;;;4.63;2.00;;;;;;;0.40;100.00;95820.53;5051970;28;24988;-71
2022/01/06 06:39:34;;;;;;;4.90;1.80;;;;;;;0.44;100.00;95818.75;5052263;28;24423;-71
2022/01/06 06:42:01;;;;;;;6.38;2.33;;;;;;;0.45;100.00;95820.44;5052237;28;24416;-71
2022/01/06 06:44:27;;;;;;;4.18;2.10;;;;;;;0.41;100.00;95819.66;5052172;28;24613;-70
2022/01/06 06:46:54;;;;;;;5.20;2.40;;;;;;;0.31;100.00;95823.28;5051776;28;24504;-72
2022/01/06 06:49:20;;;;;;;7.40;2.25;;;;;;;0.41;100.00;95824.75;5051912;28;24427;-71
2022/01/06 06:51:47;;;;;;;6.57;2.58;;;;;;;0.41;100.00;95829.03;5052050;28;24422;-71
2022/01/06 06:54:14;;;;;;;6.13;2.38;;;;;;;0.41;100.00;95832.41;5051895;28;24422;-71
2022/01/06 06:56:41;;;;;;;7.95;2.22;;;;;;;0.44;100.00;95832.31;5051694;28;24446;-71
2022/01/06 06:59:08;;;;;;;3.60;1.88;;;;;;;0.52;100.00;95836.41;5051258;28;24431;-71
2022/01/06 07:01:35;;;;;;;5.13;2.10;;;;;;;0.59;100.00;95837.94;5051574;28;24892;-71
2022/01/06 07:04:01;;;;;;;5.68;2.20;;;;;;;0.62;100.00;95835.34;5051420;28;24445;-71
2022/01/06 07:06:27;;;;;;;10.65;2.83;;;;;;;0.53;100.00;95844.03;5051597;28;24419;-71
2022/01/06 07:08:54;;;;;;;3.50;2.35;;;;;;;0.61;100.00;95842.16;5051668;28;24419;-71
2022/01/06 07:11:23;;;;;;;5.25;2.30;;;;;;;0.69;100.00;95847.91;5051609;28;24423;-71
2022/01/06 07:13:49;;;;;;;4.40;2.15;;;;;;;0.70;100.00;95852.16;5051581;28;24419;-70
2022/01/06 07:16:16;;;;;;;6.93;2.40;;;;;;;0.72;100.00;95854.66;5050849;28;24969;-71
2022/01/06 07:18:42;;;;;;;6.80;2.35;;;;;;;0.71;100.00;95855.53;5051387;28;24427;-71
2022/01/06 07:21:09;;;;;;;13.23;7.70;;;;;;;0.65;100.00;95856.50;5051696;28;24415;-71
2022/01/06 07:23:35;;;;;;;8.32;4.18;;;;;;;0.72;100.00;95865.69;5051415;28;24427;-72
2022/01/06 07:26:02;;;;;;;8.10;2.75;;;;;;;0.56;100.00;95872.00;5051176;28;24423;-72
2022/01/06 07:28:29;;;;;;;8.38;3.45;;;;;;;0.45;100.00;95871.41;5051209;28;24473;-72
2022/01/06 07:30:56;;;;;;;9.15;2.92;;;;;;;0.42;100.00;95877.38;5050885;28;24485;-72
2022/01/06 07:33:22;;;;;;;8.25;3.25;;;;;;;0.46;100.00;95871.34;5051162;28;24423;-72
2022/01/06 07:35:49;;;;;;;5.47;2.50;;;;;;;0.47;100.00;95877.28;5050598;28;24439;-73
2022/01/06 07:38:16;;;;;;;6.63;2.40;;;;;;;0.48;100.00;95877.28;5051337;28;24423;-72
2022/01/06 07:40:43;;;;;;;6.70;2.55;;;;;;;0.47;100.00;95874.75;5051079;28;24427;-73
2022/01/06 07:43:09;;;;;;;4.78;2.50;;;;;;;0.51;100.00;95884.00;5050851;28;24419;-71
2022/01/06 07:45:37;;;;;;;9.27;3.15;;;;;;;0.48;100.00;95884.06;5050557;28;24473;-71
2022/01/06 07:48:14;;;;;;;4.38;2.50;;;;;;;0.60;100.00;95878.72;5051097;28;24446;-71
2022/01/06 07:50:42;;;;;;;10.70;4.45;;;;;;;0.63;100.00;95891.38;5051012;28;24423;-72
2022/01/06 07:53:08;;;;;;;26.23;16.65;;;;;;;0.56;100.00;95891.56;5050602;28;25069;-72
2022/01/06 07:55:35;;;;;;;14.57;8.50;;;;;;;0.66;100.00;95893.84;5050517;28;24439;-72
2022/01/06 07:58:02;;;;;;;15.00;8.90;;;;;;;0.58;100.00;95895.72;5050423;28;24852;-72
2022/01/06 08:00:29;;;;;;;20.57;12.43;;;;;;;0.68;100.00;95899.75;5050208;28;24448;-72
2022/01/06 08:02:56;;;;;;;60.15;37.03;;;;;;;0.68;100.00;95898.94;5050617;28;24975;-72
2022/01/06 08:05:25;;;;;;;48.93;32.73;;;;;;;0.77;100.00;95905.53;5050446;28;24423;-72
2022/01/06 08:07:52;;;;;;;41.83;20.80;;;;;;;0.69;100.00;95913.34;5050507;28;24438;-72
2022/01/06 08:10:19;;;;;;;14.77;8.03;;;;;;;0.72;100.00;95915.81;5050568;28;24490;-72
2022/01/06 08:12:45;;;;;;;12.23;7.30;;;;;;;0.81;100.00;95924.97;5050446;28;24430;-72
2022/01/06 08:15:14;;;;;;;10.68;5.82;;;;;;;0.96;100.00;95911.88;5050204;28;24426;-73
2022/01/06 08:17:40;;;;;;;14.35;5.18;;;;;;;0.96;100.00;95912.75;5050471;28;24430;-73
2022/01/06 08:20:10;;;;;;;7.82;3.92;;;;;;;1.03;100.00;95918.50;5050389;28;24415;-72
2022/01/06 08:22:38;;;;;;;7.03;3.00;;;;;;;1.06;100.00;95922.72;5050391;28;24411;-72
2022/01/06 08:25:06;;;;;;;7.57;3.30;;;;;;;1.10;100.00;95919.22;5050335;28;24419;-72
2022/01/06 08:27:32;;;;;;;10.40;3.47;;;;;;;0.96;100.00;95928.03;5049883;28;24980;-72
2022/01/06 08:29:59;;;;;;;6.35;3.50;;;;;;;0.85;100.00;95926.56;5050282;28;24416;-72
2022/01/06 08:32:25;;;;;;;6.68;3.00;;;;;;;0.86;100.00;95931.66;5050269;28;24995;-71
2022/01/06 08:34:52;;;;;;;9.77;3.22;;;;;;;0.95;100.00;95928.06;5050195;28;24442;-70
2022/01/06 08:37:20;;;;;;;7.05;3.97;;;;;;;1.01;100.00;95924.53;5049961;28;24455;-72
2022/01/06 08:39:46;;;;;;;5.45;2.92;;;;;;;1.00;100.00;95925.41;5047811;28;24454;-71
2022/01/06 08:42:13;;;;;;;6.32;3.40;;;;;;;1.02;100.00;95921.13;5049952;28;24435;-71
2022/01/06 08:44:41;;;;;;;6.90;3.15;;;;;;;1.05;100.00;95926.97;5037232;28;24439;-71
2022/01/06 08:47:08;;;;;;;5.88;2.92;;;;;;;1.18;100.00;95927.53;5049733;28;24434;-71
2022/01/06 08:49:36;;;;;;;5.75;3.08;;;;;;;1.31;100.00;95928.91;5046880;28;24451;-71
2022/01/06 08:52:03;;;;;;;6.70;3.17;;;;;;;1.36;100.00;95936.47;5049962;28;24510;-71
2022/01/06 08:54:31;;;;;;;7.72;3.10;;;;;;;1.36;100.00;95936.47;5049995;28;24415;-72
2022/01/06 08:56:57;;;;;;;16.02;4.13;;;;;;;1.06;100.00;95936.31;5053932;28;24450;-71
2022/01/06 08:59:24;;;;;;;8.52;3.15;;;;;;;1.00;100.00;95933.88;5053655;28;24436;-72
2022/01/06 09:01:51;;;;;;;6.25;3.30;;;;;;;1.13;100.00;95937.00;5054140;28;24430;-71
2022/01/06 09:04:20;;;;;;;9.90;3.30;;;;;;;1.12;100.00;95940.44;5053943;28;25058;-71
2022/01/06 09:06:47;;;;;;;12.88;3.55;;;;;;;1.17;100.00;95947.09;5053963;28;24506;-71
2022/01/06 09:09:14;;;;;;;7.78;3.05;;;;;;;1.17;100.00;95949.66;5053292;28;24481;-72
2022/01/06 09:11:42;;;;;;;5.97;2.72;;;;;;;1.10;100.00;95947.28;5053772;28;24427;-71
2022/01/06 09:14:09;;;;;;;6.88;3.42;;;;;;;1.12;100.00;95950.66;5054067;28;24897;-71
2022/01/06 09:16:36;;;;;;;7.10;4.00;;;;;;;1.15;100.00;95953.97;5053433;28;24447;-71
2022/01/06 09:19:02;;;;;;;7.80;4.50;;;;;;;1.16;100.00;95947.97;5053467;28;24809;-74
2022/01/06 09:21:28;;;;;;;9.00;4.30;;;;;;;1.01;100.00;95950.06;5053531;28;25086;-72
2022/01/06 09:23:57;;;;;;;8.82;5.55;;;;;;;0.90;100.00;95952.84;5053486;28;24435;-72
2022/01/06 09:26:23;;;;;;;15.13;5.77;;;;;;;1.07;100.00;95966.03;5053445;28;24422;-72
2022/01/06 09:28:51;;;;;;;11.77;5.57;;;;;;;1.32;100.00;95962.94;5053435;28;24427;-72
2022/01/06 09:31:18;;;;;;;9.75;5.07;;;;;;;1.43;100.00;95964.34;5053497;28;24491;-71
2022/01/06 09:33:44;;;;;;;6.20;4.07;;;;;;;1.78;100.00;95960.09;5053376;28;24484;-71
2022/01/06 09:36:11;;;;;;;6.28;3.63;;;;;;;1.90;100.00;95964.88;5052246;28;24439;-72
2022/01/06 09:38:37;;;;;;;11.50;4.13;;;;;;;1.64;100.00;95982.59;5045196;28;24434;-72
2022/01/06 09:41:06;;;;;;;7.95;3.90;;;;;;;1.48;100.00;95987.19;5053178;28;24957;-72
2022/01/06 09:43:34;;;;;;;9.30;3.35;;;;;;;1.30;100.00;95988.50;5053313;28;24419;-73
2022/01/06 09:46:06;;;;;;;12.88;6.05;;;;;;;1.31;100.00;95994.44;5053003;28;24466;-72
2022/01/06 09:48:35;;;;;;;8.15;3.25;;;;;;;1.26;100.00;95986.88;5052973;28;24435;-71
2022/01/06 09:51:01;;;;;;;13.10;2.97;;;;;;;1.17;100.00;95985.38;5053347;28;24419;-72
2022/01/06 09:53:28;;;;;;;6.95;2.88;;;;;;;1.17;100.00;95987.91;5052876;28;25022;-72
2022/01/06 09:55:55;;;;;;;7.97;2.75;;;;;;;1.18;100.00;95981.94;5052862;28;24489;-73
2022/01/06 09:58:26;;;;;;;5.05;2.75;;;;;;;1.27;100.00;95990.28;5052851;28;24415;-72
2022/01/06 10:00:55;;;;;;;7.07;2.80;;;;;;;1.36;100.00;95982.38;5052944;28;24481;-72
2022/01/06 10:03:33;;;;;;;6.32;2.72;;;;;;;1.34;100.00;95989.25;5052769;28;24518;-73
2022/01/06 10:06:10;;;;;;;7.03;2.33;;;;;;;1.24;100.00;95990.34;5052616;28;24502;-72
2022/01/06 10:08:38;;;;;;;8.43;3.20;;;;;;;1.39;100.00;95987.44;5052249;28;24507;-77
2022/01/06 10:11:12;;;;;;;10.50;3.20;;;;;;;1.42;100.00;95987.38;5053119;28;24423;-72
2022/01/06 10:13:40;;;;;;;9.35;3.08;;;;;;;1.43;100.00;95994.97;5033149;28;24439;-72
2022/01/06 10:16:17;;;;;;;6.70;2.92;;;;;;;1.61;100.00;95993.69;5041632;28;24439;-72
2022/01/06 10:19:00;;;;;;;8.80;2.53;;;;;;;1.44;100.00;95994.09;5043799;28;24450;-72
2022/01/06 10:21:31;;;;;;;7.40;2.92;;;;;;;1.75;100.00;95995.09;5052455;28;24427;-71
2022/01/06 10:24:03;;;;;;;7.20;2.72;;;;;;;2.08;100.00;95990.84;5052439;28;24789;-72
2022/01/06 10:26:29;;;;;;;10.13;2.83;;;;;;;2.18;100.00;95992.25;5052101;28;25006;-73
2022/01/06 10:28:56;;;;;;;11.43;3.85;;;;;;;2.25;100.00;95993.78;5052518;28;24472;-72
2022/01/06 10:31:27;;;;;;;9.50;3.55;;;;;;;2.03;100.00;95993.50;5052506;28;24415;-72
2022/01/06 10:33:54;;;;;;;8.25;2.58;;;;;;;2.04;100.00;95986.66;5040268;28;24493;-73
2022/01/06 10:36:28;;;;;;;9.60;3.60;;;;;;;2.28;100.00;95991.16;5039780;28;24506;-73
2022/01/06 10:38:55;;;;;;;7.50;2.75;;;;;;;2.46;100.00;95984.69;5043227;28;24443;-73
2022/01/06 10:41:22;;;;;;;9.70;3.00;;;;;;;2.76;100.00;95985.56;5039509;28;25078;-73
2022/01/06 10:43:51;;;;;;;11.50;2.93;;;;;;;2.83;100.00;95983.66;5047745;28;24987;-73
2022/01/06 10:46:28;;;;;;;9.40;2.60;;;;;;;2.75;100.00;95988.16;5051746;28;25056;-73
2022/01/06 10:48:59;;;;;;;7.35;2.85;;;;;;;2.93;100.00;95990.19;5051938;28;24858;-72
2022/01/06 10:51:35;;;;;;;9.05;2.97;;;;;;;3.02;100.00;95987.34;5052033;28;24419;-72
2022/01/06 10:54:02;;;;;;;8.13;2.67;;;;;;;2.77;100.00;95997.44;5052149;28;24415;-72
2022/01/06 10:56:28;;;;;;;6.43;2.42;;;;;;;2.55;100.00;95994.66;5051563;28;24446;-72
2022/01/06 10:58:57;;;;;;;9.52;3.13;;;;;;;2.21;100.00;95997.28;5051592;28;24952;-73
2022/01/06 11:01:24;;;;;;;9.73;2.53;;;;;;;2.19;100.00;95996.50;5051813;28;24506;-72
2022/01/06 11:03:51;;;;;;;10.35;2.58;;;;;;;1.99;100.00;96002.13;5051685;28;24940;-73
2022/01/06 11:06:17;;;;;;;7.90;2.58;;;;;;;2.08;100.00;96007.00;5051543;28;24439;-72
2022/01/06 11:08:45;;;;;;;9.77;2.92;;;;;;;1.97;100.00;96001.34;5051725;28;24423;-72
2022/01/06 11:11:28;;;;;;;10.53;2.70;;;;;;;2.05;100.00;95996.88;5051571;28;24418;-72
2022/01/06 11:13:55;;;;;;;11.60;3.03;;;;;;;1.94;100.00;96006.53;5051607;28;24450;-72
2022/01/06 11:16:21;;;;;;;9.05;2.60;;;;;;;1.75;100.00;96007.84;5051035;28;24979;-72
2022/01/06 11:18:51;;;;;;;8.70;2.67;;;;;;;1.61;100.00;96013.28;5051629;28;24426;-73
2022/01/06 11:21:22;;;;;;;6.63;2.50;;;;;;;1.75;100.00;96013.81;5051586;28;24524;-73
2022/01/06 11:24:01;;;;;;;10.52;2.75;;;;;;;1.63;100.00;96021.72;5051543;28;24426;-72
2022/01/06 11:26:27;;;;;;;7.85;2.53;;;;;;;1.71;100.00;96014.75;5042668;28;24977;-70
2022/01/06 11:28:56;;;;;;;11.75;2.92;;;;;;;1.67;100.00;96019.09;5048228;28;25006;-71
2022/01/06 11:31:23;;;;;;;8.82;3.10;;;;;;;1.60;100.00;96020.13;5053251;28;24442;-72
2022/01/06 11:33:52;;;;;;;10.95;3.40;;;;;;;1.59;100.00;96020.13;5060119;28;24496;-72
2022/01/06 11:36:20;;;;;;;11.20;2.85;;;;;;;1.52;100.00;96022.00;5070094;28;24415;-70
2022/01/06 11:38:48;;;;;;;7.00;2.50;;;;;;;1.64;100.00;96015.78;5067342;28;24423;-71